createdAt,value
2018-05-29T00:00:20.996Z,0
2018-05-29T00:00:47.163Z,0
2018-05-29T00:01:13.298Z,0
2018-05-29T00:01:39.446Z,0
2018-05-29T00:02:05.588Z,0
2018-05-29T00:02:31.771Z,0
2018-05-29T00:02:57.868Z,0
2018-05-29T00:03:24.009Z,0
2018-05-29T00:03:50.151Z,0
2018-05-29T00:04:16.292Z,0
2018-05-29T00:04:42.436Z,0
2018-05-29T00:05:08.576Z,0
2018-05-29T00:05:34.718Z,0
2018-05-29T00:06:00.869Z,0
2018-05-29T00:06:27.009Z,0
2018-05-29T00:06:53.151Z,0
2018-05-29T00:07:19.313Z,0
2018-05-29T00:07:45.487Z,0
2018-05-29T00:08:11.633Z,0
2018-05-29T00:08:37.774Z,0
2018-05-29T00:09:03.918Z,0
2018-05-29T00:09:30.079Z,0
2018-05-29T00:09:56.241Z,0
2018-05-29T00:10:22.463Z,0
2018-05-29T00:10:48.616Z,0
2018-05-29T00:11:14.776Z,0
2018-05-29T00:11:40.923Z,0
2018-05-29T00:12:07.066Z,0
2018-05-29T00:12:33.235Z,0
2018-05-29T00:12:59.370Z,0
2018-05-29T00:13:25.513Z,0
2018-05-29T00:13:51.654Z,0
2018-05-29T00:14:17.787Z,0
2018-05-29T00:14:43.948Z,0
2018-05-29T00:15:10.095Z,0
2018-05-29T00:15:36.254Z,0
2018-05-29T00:16:02.390Z,0
2018-05-29T00:16:28.561Z,0
2018-05-29T00:16:54.722Z,0
2018-05-29T00:17:20.894Z,0
2018-05-29T00:17:47.021Z,0
2018-05-29T00:18:13.193Z,0
2018-05-29T00:18:39.360Z,0
2018-05-29T00:19:05.529Z,0
2018-05-29T00:19:31.667Z,0
2018-05-29T00:19:57.853Z,0
2018-05-29T00:20:23.976Z,0
2018-05-29T00:20:50.137Z,0
2018-05-29T00:21:16.289Z,0
2018-05-29T00:21:42.508Z,0
2018-05-29T00:22:08.861Z,0
2018-05-29T00:22:35.021Z,0
2018-05-29T00:23:01.251Z,0
2018-05-29T00:23:27.396Z,0
2018-05-29T00:23:53.681Z,0
2018-05-29T00:24:19.823Z,0
2018-05-29T00:24:46.014Z,0
2018-05-29T00:25:12.179Z,0
2018-05-29T00:25:38.328Z,0
2018-05-29T00:26:04.470Z,0
2018-05-29T00:26:30.645Z,0
2018-05-29T00:26:56.797Z,0
2018-05-29T00:27:22.966Z,0
2018-05-29T00:27:49.174Z,0
2018-05-29T00:28:15.345Z,0
2018-05-29T00:28:41.491Z,0
2018-05-29T00:29:07.643Z,0
2018-05-29T00:29:33.810Z,0
2018-05-29T00:29:59.961Z,0
2018-05-29T00:30:26.131Z,0
2018-05-29T00:30:52.303Z,0
2018-05-29T00:31:18.498Z,0
2018-05-29T00:31:44.677Z,0
2018-05-29T00:32:10.835Z,0
2018-05-29T00:32:37.008Z,0
2018-05-29T00:33:03.147Z,0
2018-05-29T00:33:29.323Z,0
2018-05-29T00:33:55.479Z,0
2018-05-29T00:34:21.650Z,0
2018-05-29T00:34:47.786Z,0
2018-05-29T00:35:13.922Z,0
2018-05-29T00:35:40.063Z,0
2018-05-29T00:36:06.202Z,0
2018-05-29T00:36:32.347Z,0
2018-05-29T00:36:58.484Z,0
2018-05-29T00:37:24.629Z,0
2018-05-29T00:37:50.765Z,0
2018-05-29T00:38:16.945Z,0
2018-05-29T00:38:43.079Z,0
2018-05-29T00:39:09.274Z,0
2018-05-29T00:39:35.399Z,0
2018-05-29T00:40:01.545Z,0
2018-05-29T00:40:27.688Z,0
2018-05-29T00:40:53.847Z,0
2018-05-29T00:41:19.987Z,0
2018-05-29T00:41:46.151Z,0
2018-05-29T00:42:12.318Z,0
2018-05-29T00:42:38.483Z,0
2018-05-29T00:43:04.622Z,0
2018-05-29T00:43:30.794Z,0
2018-05-29T00:43:56.939Z,0
2018-05-29T00:44:23.075Z,0
2018-05-29T00:44:49.247Z,0
2018-05-29T00:45:15.380Z,0
2018-05-29T00:45:41.555Z,0
2018-05-29T00:46:07.688Z,0
2018-05-29T00:46:33.828Z,0
2018-05-29T00:46:59.994Z,0
2018-05-29T00:47:26.185Z,0
2018-05-29T00:47:52.328Z,0
2018-05-29T00:48:18.469Z,0
2018-05-29T00:48:44.602Z,0
2018-05-29T00:49:10.763Z,0
2018-05-29T00:49:36.970Z,0
2018-05-29T00:50:05.350Z,0
2018-05-29T00:50:32.435Z,0
2018-05-29T00:50:58.533Z,0
2018-05-29T00:51:24.709Z,0
2018-05-29T00:51:50.847Z,0
2018-05-29T00:52:17.021Z,0
2018-05-29T00:52:43.164Z,0
2018-05-29T00:53:09.299Z,0
2018-05-29T00:53:35.442Z,0
2018-05-29T00:54:01.576Z,0
2018-05-29T00:54:27.746Z,0
2018-05-29T00:54:53.877Z,0
2018-05-29T00:55:20.020Z,0
2018-05-29T00:55:46.176Z,0
2018-05-29T00:56:12.339Z,0
2018-05-29T00:56:38.484Z,0
2018-05-29T00:57:04.649Z,0
2018-05-29T00:57:30.796Z,0
2018-05-29T00:57:56.935Z,0
2018-05-29T00:58:23.075Z,0
2018-05-29T00:58:49.221Z,0
2018-05-29T00:59:15.382Z,0
2018-05-29T00:59:41.520Z,0
2018-05-29T01:00:07.671Z,0
2018-05-29T01:00:33.802Z,0
2018-05-29T01:00:59.944Z,0
2018-05-29T01:01:26.080Z,0
2018-05-29T01:01:52.283Z,0
2018-05-29T01:02:18.420Z,0
2018-05-29T01:02:44.621Z,0
2018-05-29T01:03:10.777Z,0
2018-05-29T01:03:36.949Z,0
2018-05-29T01:04:03.109Z,0
2018-05-29T01:04:29.277Z,0
2018-05-29T01:04:55.420Z,0
2018-05-29T01:05:21.572Z,0
2018-05-29T01:05:47.712Z,0
2018-05-29T01:06:13.880Z,0
2018-05-29T01:06:40.019Z,0
2018-05-29T01:07:06.161Z,0
2018-05-29T01:07:32.300Z,0
2018-05-29T01:07:58.447Z,0
2018-05-29T01:08:24.595Z,0
2018-05-29T01:08:50.733Z,0
2018-05-29T01:09:16.879Z,0
2018-05-29T01:09:43.013Z,0
2018-05-29T01:10:09.148Z,0
2018-05-29T01:10:35.298Z,0
2018-05-29T01:11:01.443Z,0
2018-05-29T01:11:27.581Z,0
2018-05-29T01:11:53.718Z,0
2018-05-29T01:12:19.872Z,0
2018-05-29T01:12:46.032Z,0
2018-05-29T01:13:12.189Z,0
2018-05-29T01:13:38.335Z,0
2018-05-29T01:14:04.474Z,0
2018-05-29T01:14:30.618Z,0
2018-05-29T01:14:56.775Z,0
2018-05-29T01:15:22.976Z,0
2018-05-29T01:15:49.143Z,0
2018-05-29T01:16:15.283Z,0
2018-05-29T01:16:41.427Z,0
2018-05-29T01:17:07.575Z,0
2018-05-29T01:17:33.733Z,0
2018-05-29T01:17:59.880Z,0
2018-05-29T01:18:26.021Z,0
2018-05-29T01:18:52.159Z,0
2018-05-29T01:19:18.308Z,0
2018-05-29T01:19:44.472Z,0
2018-05-29T01:20:10.640Z,0
2018-05-29T01:20:36.791Z,0
2018-05-29T01:21:02.935Z,0
2018-05-29T01:21:29.078Z,0
2018-05-29T01:21:55.223Z,0
2018-05-29T01:22:21.363Z,0
2018-05-29T01:22:47.533Z,0
2018-05-29T01:23:13.702Z,0
2018-05-29T01:23:39.839Z,0
2018-05-29T01:24:06.002Z,0
2018-05-29T01:24:32.161Z,0
2018-05-29T01:24:58.307Z,0
2018-05-29T01:25:24.444Z,0
2018-05-29T01:25:50.584Z,0
2018-05-29T01:26:16.732Z,0
2018-05-29T01:26:42.873Z,0
2018-05-29T01:27:09.013Z,0
2018-05-29T01:27:35.157Z,0
2018-05-29T01:28:01.324Z,0
2018-05-29T01:28:27.493Z,0
2018-05-29T01:28:53.634Z,0
2018-05-29T01:29:19.767Z,0
2018-05-29T01:29:45.911Z,0
2018-05-29T01:30:12.052Z,0
2018-05-29T01:30:38.226Z,0
2018-05-29T01:31:04.366Z,0
2018-05-29T01:31:30.508Z,0
2018-05-29T01:31:56.657Z,0
2018-05-29T01:32:22.797Z,0
2018-05-29T01:32:48.964Z,0
2018-05-29T01:33:15.124Z,0
2018-05-29T01:33:41.266Z,0
2018-05-29T01:34:07.408Z,0
2018-05-29T01:34:33.544Z,0
2018-05-29T01:34:59.689Z,0
2018-05-29T01:35:25.857Z,0
2018-05-29T01:35:52.003Z,0
2018-05-29T01:36:18.162Z,0
2018-05-29T01:36:44.350Z,0
2018-05-29T01:37:10.489Z,0
2018-05-29T01:37:36.642Z,0
2018-05-29T01:38:02.788Z,0
2018-05-29T01:38:28.931Z,0
2018-05-29T01:38:55.110Z,0
2018-05-29T01:39:21.287Z,0
2018-05-29T01:39:47.428Z,0
2018-05-29T01:40:13.597Z,0
2018-05-29T01:40:39.738Z,0
2018-05-29T01:41:05.891Z,0
2018-05-29T01:41:32.031Z,0
2018-05-29T01:41:58.233Z,0
2018-05-29T01:42:24.378Z,0
2018-05-29T01:42:50.522Z,0
2018-05-29T01:43:16.663Z,0
2018-05-29T01:43:42.809Z,0
2018-05-29T01:44:08.953Z,0
2018-05-29T01:44:35.090Z,0
2018-05-29T01:45:01.235Z,0
2018-05-29T01:45:27.370Z,0
2018-05-29T01:45:53.511Z,0
2018-05-29T01:46:19.653Z,0
2018-05-29T01:46:45.793Z,0
2018-05-29T01:47:11.961Z,0
2018-05-29T01:47:38.117Z,0
2018-05-29T01:48:04.252Z,0
2018-05-29T01:48:30.398Z,0
2018-05-29T01:48:56.557Z,0
2018-05-29T01:49:22.742Z,0
2018-05-29T01:49:48.886Z,0
2018-05-29T01:50:15.022Z,0
2018-05-29T01:50:41.175Z,0
2018-05-29T01:51:07.318Z,0
2018-05-29T01:51:33.461Z,0
2018-05-29T01:51:59.605Z,0
2018-05-29T01:52:25.741Z,0
2018-05-29T01:52:51.882Z,0
2018-05-29T01:53:18.030Z,0
2018-05-29T01:53:44.170Z,0
2018-05-29T01:54:10.308Z,0
2018-05-29T01:54:36.505Z,0
2018-05-29T01:55:02.644Z,0
2018-05-29T01:55:28.792Z,0
2018-05-29T01:55:54.953Z,0
2018-05-29T01:56:21.100Z,0
2018-05-29T01:56:47.233Z,0
2018-05-29T01:57:13.375Z,0
2018-05-29T01:57:39.515Z,0
2018-05-29T01:58:05.661Z,0
2018-05-29T01:58:31.815Z,0
2018-05-29T01:58:57.952Z,0
2018-05-29T01:59:24.112Z,0
2018-05-29T01:59:50.258Z,0
2018-05-29T02:00:16.395Z,0
2018-05-29T02:00:42.541Z,0
2018-05-29T02:01:08.681Z,0
2018-05-29T02:01:34.848Z,0
2018-05-29T02:02:01.013Z,0
2018-05-29T02:02:27.184Z,0
2018-05-29T02:02:53.327Z,0
2018-05-29T02:03:19.473Z,0
2018-05-29T02:03:45.631Z,0
2018-05-29T02:04:11.777Z,0
2018-05-29T02:04:37.974Z,0
2018-05-29T02:05:04.080Z,0
2018-05-29T02:05:30.282Z,0
2018-05-29T02:05:56.382Z,0
2018-05-29T02:06:22.581Z,0
2018-05-29T02:06:48.717Z,0
2018-05-29T02:07:14.862Z,0
2018-05-29T02:07:41.029Z,0
2018-05-29T02:08:07.193Z,0
2018-05-29T02:08:33.314Z,0
2018-05-29T02:08:59.451Z,0
2018-05-29T02:09:25.590Z,0
2018-05-29T02:09:51.785Z,0
2018-05-29T02:10:17.991Z,0
2018-05-29T02:10:44.154Z,0
2018-05-29T02:11:10.301Z,0
2018-05-29T02:11:36.432Z,0
2018-05-29T02:12:02.580Z,0
2018-05-29T02:12:28.736Z,0
2018-05-29T02:12:54.892Z,0
2018-05-29T02:13:21.048Z,0
2018-05-29T02:13:47.208Z,0
2018-05-29T02:14:13.363Z,0
2018-05-29T02:14:39.524Z,0
2018-05-29T02:15:05.699Z,0
2018-05-29T02:15:31.868Z,0
2018-05-29T02:15:58.001Z,0
2018-05-29T02:16:24.169Z,0
2018-05-29T02:16:50.303Z,0
2018-05-29T02:17:16.449Z,0
2018-05-29T02:17:42.589Z,0
2018-05-29T02:18:08.748Z,0
2018-05-29T02:18:34.932Z,0
2018-05-29T02:19:01.163Z,0
2018-05-29T02:19:27.279Z,0
2018-05-29T02:19:53.422Z,0
2018-05-29T02:20:19.575Z,0
2018-05-29T02:20:45.708Z,0
2018-05-29T02:21:11.849Z,0
2018-05-29T02:21:37.990Z,0
2018-05-29T02:22:04.158Z,0
2018-05-29T02:22:30.316Z,0
2018-05-29T02:22:56.452Z,0
2018-05-29T02:23:22.640Z,0
2018-05-29T02:23:48.813Z,0
2018-05-29T02:24:14.965Z,0
2018-05-29T02:24:41.106Z,0
2018-05-29T02:25:07.297Z,0
2018-05-29T02:25:33.456Z,0
2018-05-29T02:25:59.587Z,0
2018-05-29T02:26:25.754Z,0
2018-05-29T02:26:51.882Z,0
2018-05-29T02:27:18.083Z,0
2018-05-29T02:27:44.225Z,0
2018-05-29T02:28:10.390Z,0
2018-05-29T02:28:36.550Z,0
2018-05-29T02:29:02.694Z,0
2018-05-29T02:29:28.835Z,0
2018-05-29T02:29:54.973Z,0
2018-05-29T02:30:21.134Z,0
2018-05-29T02:30:47.318Z,0
2018-05-29T02:31:13.487Z,0
2018-05-29T02:31:39.651Z,0
2018-05-29T02:32:05.861Z,0
2018-05-29T02:32:32.051Z,0
2018-05-29T02:32:58.210Z,4
2018-05-29T02:33:24.372Z,4
2018-05-29T02:33:50.541Z,4
2018-05-29T02:34:16.675Z,4
2018-05-29T02:34:42.834Z,4
2018-05-29T02:35:08.977Z,4
2018-05-29T02:35:35.158Z,4
2018-05-29T02:36:01.349Z,0
2018-05-29T02:36:27.499Z,0
2018-05-29T02:36:53.684Z,0
2018-05-29T02:37:19.823Z,0
2018-05-29T02:37:46.011Z,4
2018-05-29T02:38:12.161Z,4
2018-05-29T02:38:38.322Z,4
2018-05-29T02:39:04.512Z,4
2018-05-29T02:39:30.665Z,4
2018-05-29T02:39:56.834Z,4
2018-05-29T02:40:23.004Z,4
2018-05-29T02:40:49.223Z,4
2018-05-29T02:41:15.427Z,4
2018-05-29T02:41:41.576Z,4
2018-05-29T02:42:07.709Z,4
2018-05-29T02:42:33.872Z,8
2018-05-29T02:43:00.016Z,4
2018-05-29T02:43:26.182Z,4
2018-05-29T02:43:52.405Z,4
2018-05-29T02:44:18.558Z,8
2018-05-29T02:44:44.699Z,8
2018-05-29T02:45:10.890Z,4
2018-05-29T02:45:37.053Z,8
2018-05-29T02:46:03.225Z,8
2018-05-29T02:46:29.409Z,8
2018-05-29T02:46:55.622Z,8
2018-05-29T02:47:21.766Z,12
2018-05-29T02:47:47.929Z,8
2018-05-29T02:48:14.115Z,12
2018-05-29T02:48:40.325Z,12
2018-05-29T02:49:06.522Z,12
2018-05-29T02:49:32.663Z,12
2018-05-29T02:49:58.806Z,12
2018-05-29T02:50:24.939Z,16
2018-05-29T02:50:51.091Z,16
2018-05-29T02:51:17.230Z,16
2018-05-29T02:51:43.424Z,16
2018-05-29T02:52:09.586Z,16
2018-05-29T02:52:35.762Z,16
2018-05-29T02:53:01.927Z,20
2018-05-29T02:53:28.069Z,24
2018-05-29T02:53:54.210Z,24
2018-05-29T02:54:20.362Z,24
2018-05-29T02:54:46.517Z,24
2018-05-29T02:55:12.651Z,28
2018-05-29T02:55:38.803Z,28
2018-05-29T02:56:04.969Z,32
2018-05-29T02:56:31.094Z,32
2018-05-29T02:56:57.237Z,32
2018-05-29T02:57:23.376Z,36
2018-05-29T02:57:49.507Z,40
2018-05-29T02:58:15.678Z,36
2018-05-29T02:58:41.829Z,40
2018-05-29T02:59:07.973Z,48
2018-05-29T02:59:34.117Z,48
2018-05-29T03:00:00.274Z,52
2018-05-29T03:00:26.448Z,52
2018-05-29T03:00:52.680Z,52
2018-05-29T03:01:18.962Z,56
2018-05-29T03:01:45.192Z,60
2018-05-29T03:02:11.530Z,68
2018-05-29T03:02:37.934Z,72
2018-05-29T03:03:04.312Z,72
2018-05-29T03:03:30.602Z,80
2018-05-29T03:03:57.239Z,80
2018-05-29T03:04:23.455Z,88
2018-05-29T03:04:49.774Z,92
2018-05-29T03:05:15.983Z,96
2018-05-29T03:05:42.150Z,104
2018-05-29T03:06:08.490Z,104
2018-05-29T03:06:34.636Z,112
2018-05-29T03:07:00.775Z,120
2018-05-29T03:07:26.958Z,124
2018-05-29T03:07:53.109Z,132
2018-05-29T03:08:19.242Z,136
2018-05-29T03:08:45.385Z,144
2018-05-29T03:09:11.525Z,148
2018-05-29T03:09:37.689Z,156
2018-05-29T03:10:03.818Z,160
2018-05-29T03:10:29.967Z,164
2018-05-29T03:10:56.119Z,172
2018-05-29T03:11:22.259Z,176
2018-05-29T03:11:48.392Z,184
2018-05-29T03:12:14.534Z,196
2018-05-29T03:12:40.720Z,200
2018-05-29T03:13:06.890Z,208
2018-05-29T03:13:33.059Z,216
2018-05-29T03:13:59.221Z,224
2018-05-29T03:14:25.352Z,232
2018-05-29T03:14:51.520Z,240
2018-05-29T03:15:17.710Z,248
2018-05-29T03:15:43.888Z,260
2018-05-29T03:16:10.025Z,268
2018-05-29T03:16:36.161Z,272
2018-05-29T03:17:02.314Z,284
2018-05-29T03:17:28.452Z,292
2018-05-29T03:17:54.623Z,300
2018-05-29T03:18:20.790Z,308
2018-05-29T03:18:46.950Z,320
2018-05-29T03:19:13.090Z,324
2018-05-29T03:19:39.233Z,336
2018-05-29T03:20:05.415Z,344
2018-05-29T03:20:31.537Z,352
2018-05-29T03:20:57.714Z,360
2018-05-29T03:21:23.890Z,368
2018-05-29T03:21:50.026Z,380
2018-05-29T03:22:16.166Z,392
2018-05-29T03:22:42.303Z,404
2018-05-29T03:23:08.478Z,416
2018-05-29T03:23:34.611Z,428
2018-05-29T03:24:00.752Z,440
2018-05-29T03:24:26.921Z,456
2018-05-29T03:24:53.090Z,472
2018-05-29T03:25:19.226Z,484
2018-05-29T03:25:45.395Z,504
2018-05-29T03:26:11.558Z,516
2018-05-29T03:26:37.719Z,536
2018-05-29T03:27:03.887Z,548
2018-05-29T03:27:30.046Z,572
2018-05-29T03:27:56.185Z,588
2018-05-29T03:28:22.413Z,604
2018-05-29T03:28:48.546Z,624
2018-05-29T03:29:14.686Z,644
2018-05-29T03:29:40.846Z,664
2018-05-29T03:30:06.996Z,684
2018-05-29T03:30:33.187Z,704
2018-05-29T03:30:59.386Z,724
2018-05-29T03:31:25.551Z,748
2018-05-29T03:31:51.689Z,768
2018-05-29T03:32:17.845Z,792
2018-05-29T03:32:43.993Z,812
2018-05-29T03:33:10.136Z,840
2018-05-29T03:33:36.272Z,864
2018-05-29T03:34:02.419Z,888
2018-05-29T03:34:28.721Z,912
2018-05-29T03:34:54.803Z,940
2018-05-29T03:35:20.947Z,964
2018-05-29T03:35:47.089Z,988
2018-05-29T03:36:13.245Z,1020
2018-05-29T03:36:39.389Z,1044
2018-05-29T03:37:05.530Z,1072
2018-05-29T03:37:31.669Z,1096
2018-05-29T03:37:57.856Z,1124
2018-05-29T03:38:23.996Z,1156
2018-05-29T03:38:50.161Z,1180
2018-05-29T03:39:16.332Z,1208
2018-05-29T03:39:42.497Z,1236
2018-05-29T03:40:08.647Z,1268
2018-05-29T03:40:34.805Z,1292
2018-05-29T03:41:00.944Z,1320
2018-05-29T03:41:27.098Z,1348
2018-05-29T03:41:53.238Z,1380
2018-05-29T03:42:19.400Z,1404
2018-05-29T03:42:45.580Z,1436
2018-05-29T03:43:11.715Z,1460
2018-05-29T03:43:37.852Z,1492
2018-05-29T03:44:03.999Z,1520
2018-05-29T03:44:30.141Z,1552
2018-05-29T03:44:56.282Z,1588
2018-05-29T03:45:22.418Z,1620
2018-05-29T03:45:48.562Z,1656
2018-05-29T03:46:14.723Z,1688
2018-05-29T03:46:40.919Z,1716
2018-05-29T03:47:07.086Z,1744
2018-05-29T03:47:33.273Z,1768
2018-05-29T03:47:59.407Z,1796
2018-05-29T03:48:25.574Z,1820
2018-05-29T03:48:51.730Z,1844
2018-05-29T03:49:17.885Z,1876
2018-05-29T03:49:44.091Z,1904
2018-05-29T03:50:10.226Z,1932
2018-05-29T03:50:36.392Z,1956
2018-05-29T03:51:02.536Z,1984
2018-05-29T03:51:28.725Z,2008
2018-05-29T03:51:54.868Z,2028
2018-05-29T03:52:21.001Z,2056
2018-05-29T03:52:47.306Z,2084
2018-05-29T03:53:13.458Z,2108
2018-05-29T03:53:39.605Z,2136
2018-05-29T03:54:06.017Z,2164
2018-05-29T03:54:32.377Z,2188
2018-05-29T03:54:58.920Z,2220
2018-05-29T03:55:25.160Z,2252
2018-05-29T03:55:51.339Z,2284
2018-05-29T03:56:17.625Z,2312
2018-05-29T03:56:43.809Z,2340
2018-05-29T03:57:09.978Z,2376
2018-05-29T03:57:36.133Z,2404
2018-05-29T03:58:02.283Z,2436
2018-05-29T03:58:28.423Z,2464
2018-05-29T03:58:54.592Z,2496
2018-05-29T03:59:20.736Z,2524
2018-05-29T03:59:46.893Z,2552
2018-05-29T04:00:13.051Z,2584
2018-05-29T04:00:39.243Z,2616
2018-05-29T04:01:05.390Z,2648
2018-05-29T04:01:31.557Z,2680
2018-05-29T04:01:57.697Z,2712
2018-05-29T04:02:23.887Z,2744
2018-05-29T04:02:50.060Z,2780
2018-05-29T04:03:16.296Z,2808
2018-05-29T04:03:42.424Z,2840
2018-05-29T04:04:08.567Z,2868
2018-05-29T04:04:34.701Z,2896
2018-05-29T04:05:00.848Z,2920
2018-05-29T04:05:27.016Z,2944
2018-05-29T04:05:53.154Z,2968
2018-05-29T04:06:19.297Z,2988
2018-05-29T04:06:45.458Z,3016
2018-05-29T04:07:11.624Z,3044
2018-05-29T04:07:37.754Z,3068
2018-05-29T04:08:03.898Z,3088
2018-05-29T04:08:30.076Z,3116
2018-05-29T04:08:56.236Z,3136
2018-05-29T04:09:22.469Z,3160
2018-05-29T04:09:48.585Z,3184
2018-05-29T04:10:14.747Z,3208
2018-05-29T04:10:40.885Z,3224
2018-05-29T04:11:07.027Z,3244
2018-05-29T04:11:33.203Z,3268
2018-05-29T04:11:59.354Z,3288
2018-05-29T04:12:25.516Z,3308
2018-05-29T04:12:51.653Z,3332
2018-05-29T04:13:17.875Z,3352
2018-05-29T04:13:44.018Z,3372
2018-05-29T04:14:10.239Z,3396
2018-05-29T04:14:36.402Z,3412
2018-05-29T04:15:02.544Z,3432
2018-05-29T04:15:28.698Z,3448
2018-05-29T04:15:54.844Z,3464
2018-05-29T04:16:20.993Z,3484
2018-05-29T04:16:47.134Z,3504
2018-05-29T04:17:13.269Z,3524
2018-05-29T04:17:39.415Z,3548
2018-05-29T04:18:05.553Z,3572
2018-05-29T04:18:31.721Z,3592
2018-05-29T04:18:57.890Z,3616
2018-05-29T04:19:24.059Z,3640
2018-05-29T04:19:50.192Z,3668
2018-05-29T04:20:16.337Z,3696
2018-05-29T04:20:42.481Z,3724
2018-05-29T04:21:08.638Z,3752
2018-05-29T04:21:34.784Z,3784
2018-05-29T04:22:00.931Z,3816
2018-05-29T04:22:27.077Z,3848
2018-05-29T04:22:53.246Z,3884
2018-05-29T04:23:19.414Z,3908
2018-05-29T04:23:45.585Z,3940
2018-05-29T04:24:11.730Z,4000
2018-05-29T04:24:37.881Z,4052
2018-05-29T04:25:04.029Z,4112
2018-05-29T04:25:30.175Z,4180
2018-05-29T04:25:56.312Z,4248
2018-05-29T04:26:22.534Z,4332
2018-05-29T04:26:48.689Z,4368
2018-05-29T04:27:14.852Z,4384
2018-05-29T04:27:41.018Z,4384
2018-05-29T04:28:07.168Z,4376
2018-05-29T04:28:33.304Z,4364
2018-05-29T04:28:59.451Z,4380
2018-05-29T04:29:25.587Z,4392
2018-05-29T04:29:51.731Z,4412
2018-05-29T04:30:17.897Z,4452
2018-05-29T04:30:44.046Z,4484
2018-05-29T04:31:10.183Z,4524
2018-05-29T04:31:36.356Z,4564
2018-05-29T04:32:02.470Z,4604
2018-05-29T04:32:28.612Z,4648
2018-05-29T04:32:54.753Z,4688
2018-05-29T04:33:20.927Z,4732
2018-05-29T04:33:47.064Z,4780
2018-05-29T04:34:13.227Z,4832
2018-05-29T04:34:39.369Z,4872
2018-05-29T04:35:05.515Z,4908
2018-05-29T04:35:31.655Z,4948
2018-05-29T04:35:57.797Z,4988
2018-05-29T04:36:23.937Z,5028
2018-05-29T04:36:50.085Z,5072
2018-05-29T04:37:16.244Z,5112
2018-05-29T04:37:42.436Z,5160
2018-05-29T04:38:08.581Z,5212
2018-05-29T04:38:34.753Z,5260
2018-05-29T04:39:00.896Z,5316
2018-05-29T04:39:27.032Z,5368
2018-05-29T04:39:53.204Z,5424
2018-05-29T04:40:19.345Z,5484
2018-05-29T04:40:45.514Z,5552
2018-05-29T04:41:11.656Z,5632
2018-05-29T04:41:37.792Z,5736
2018-05-29T04:42:03.977Z,5864
2018-05-29T04:42:30.120Z,6264
2018-05-29T04:42:56.282Z,7036
2018-05-29T04:43:22.427Z,8036
2018-05-29T04:43:48.563Z,9132
2018-05-29T04:44:14.714Z,10156
2018-05-29T04:44:40.885Z,11108
2018-05-29T04:45:07.018Z,11544
2018-05-29T04:45:33.161Z,11676
2018-05-29T04:45:59.305Z,11712
2018-05-29T04:46:25.453Z,11812
2018-05-29T04:46:51.592Z,11988
2018-05-29T04:47:17.785Z,12228
2018-05-29T04:47:43.928Z,12372
2018-05-29T04:48:10.091Z,12564
2018-05-29T04:48:36.234Z,12692
2018-05-29T04:49:02.384Z,12816
2018-05-29T04:49:28.569Z,13052
2018-05-29T04:49:54.718Z,13408
2018-05-29T04:50:20.854Z,13600
2018-05-29T04:50:47.039Z,13664
2018-05-29T04:51:13.190Z,13600
2018-05-29T04:51:39.353Z,12904
2018-05-29T04:52:05.519Z,11928
2018-05-29T04:52:31.665Z,10908
2018-05-29T04:52:58.439Z,9828
2018-05-29T04:53:24.590Z,8876
2018-05-29T04:53:50.764Z,8264
2018-05-29T04:54:16.982Z,7804
2018-05-29T04:54:43.120Z,7488
2018-05-29T04:55:09.268Z,7416
2018-05-29T04:55:35.400Z,7400
2018-05-29T04:56:01.535Z,7388
2018-05-29T04:56:27.681Z,7388
2018-05-29T04:56:53.845Z,7396
2018-05-29T04:57:20.007Z,7400
2018-05-29T04:57:46.146Z,7404
2018-05-29T04:58:12.294Z,7404
2018-05-29T04:58:38.433Z,7388
2018-05-29T04:59:04.586Z,7400
2018-05-29T04:59:30.751Z,7404
2018-05-29T04:59:56.893Z,7428
2018-05-29T05:00:23.037Z,7456
2018-05-29T05:00:49.213Z,7464
2018-05-29T05:01:15.352Z,7456
2018-05-29T05:01:41.500Z,7444
2018-05-29T05:02:07.640Z,7484
2018-05-29T05:02:33.854Z,7532
2018-05-29T05:02:59.946Z,7544
2018-05-29T05:03:26.091Z,7580
2018-05-29T05:03:52.251Z,7616
2018-05-29T05:04:18.397Z,7680
2018-05-29T05:04:44.544Z,7740
2018-05-29T05:05:10.708Z,7776
2018-05-29T05:05:36.848Z,7800
2018-05-29T05:06:02.989Z,7844
2018-05-29T05:06:29.155Z,7880
2018-05-29T05:06:55.326Z,7904
2018-05-29T05:07:21.463Z,7924
2018-05-29T05:07:47.653Z,7944
2018-05-29T05:08:13.800Z,7976
2018-05-29T05:08:39.972Z,8012
2018-05-29T05:09:06.143Z,8040
2018-05-29T05:09:32.275Z,8088
2018-05-29T05:09:58.417Z,8124
2018-05-29T05:10:24.561Z,8156
2018-05-29T05:10:50.701Z,8192
2018-05-29T05:11:16.836Z,8240
2018-05-29T05:11:42.984Z,8260
2018-05-29T05:12:09.119Z,8296
2018-05-29T05:12:35.269Z,8352
2018-05-29T05:13:01.402Z,8412
2018-05-29T05:13:27.546Z,8476
2018-05-29T05:13:53.684Z,8556
2018-05-29T05:14:19.852Z,8624
2018-05-29T05:14:45.993Z,8680
2018-05-29T05:15:12.139Z,8736
2018-05-29T05:15:38.280Z,8792
2018-05-29T05:16:04.416Z,8840
2018-05-29T05:16:30.553Z,8912
2018-05-29T05:16:56.696Z,8948
2018-05-29T05:17:22.846Z,9000
2018-05-29T05:17:48.977Z,9048
2018-05-29T05:18:15.125Z,9064
2018-05-29T05:18:41.266Z,9128
2018-05-29T05:19:07.409Z,9156
2018-05-29T05:19:33.570Z,9216
2018-05-29T05:19:59.741Z,9228
2018-05-29T05:20:25.889Z,9256
2018-05-29T05:20:52.029Z,9292
2018-05-29T05:21:18.168Z,9316
2018-05-29T05:21:44.341Z,9368
2018-05-29T05:22:10.511Z,9392
2018-05-29T05:22:36.651Z,9440
2018-05-29T05:23:02.823Z,9488
2018-05-29T05:23:28.982Z,9524
2018-05-29T05:23:55.124Z,9596
2018-05-29T05:24:21.291Z,9624
2018-05-29T05:24:47.432Z,9672
2018-05-29T05:25:13.577Z,9732
2018-05-29T05:25:39.720Z,9788
2018-05-29T05:26:05.873Z,9872
2018-05-29T05:26:32.046Z,9936
2018-05-29T05:26:58.211Z,9980
2018-05-29T05:27:24.346Z,10032
2018-05-29T05:27:50.519Z,10068
2018-05-29T05:28:16.664Z,10116
2018-05-29T05:28:42.813Z,10148
2018-05-29T05:29:08.950Z,10188
2018-05-29T05:29:35.092Z,10220
2018-05-29T05:30:01.289Z,10280
2018-05-29T05:30:27.394Z,10308
2018-05-29T05:30:53.563Z,10344
2018-05-29T05:31:19.703Z,10376
2018-05-29T05:31:45.845Z,10408
2018-05-29T05:32:11.994Z,10436
2018-05-29T05:32:38.144Z,10464
2018-05-29T05:33:04.278Z,10492
2018-05-29T05:33:30.420Z,10516
2018-05-29T05:33:56.563Z,10532
2018-05-29T05:34:22.711Z,10568
2018-05-29T05:34:48.847Z,10588
2018-05-29T05:35:14.989Z,10592
2018-05-29T05:35:41.120Z,10644
2018-05-29T05:36:07.315Z,10676
2018-05-29T05:36:33.459Z,10688
2018-05-29T05:36:59.616Z,10692
2018-05-29T05:37:25.759Z,10708
2018-05-29T05:37:51.905Z,10760
2018-05-29T05:38:18.040Z,10740
2018-05-29T05:38:44.186Z,10788
2018-05-29T05:39:10.325Z,10840
2018-05-29T05:39:36.495Z,10872
2018-05-29T05:40:02.684Z,10888
2018-05-29T05:40:28.821Z,10904
2018-05-29T05:40:54.968Z,10932
2018-05-29T05:41:21.098Z,10992
2018-05-29T05:41:47.244Z,11020
2018-05-29T05:42:13.388Z,11032
2018-05-29T05:42:39.521Z,11072
2018-05-29T05:43:05.669Z,11116
2018-05-29T05:43:31.816Z,11116
2018-05-29T05:43:57.973Z,11128
2018-05-29T05:44:24.100Z,11152
2018-05-29T05:44:50.243Z,11180
2018-05-29T05:45:16.406Z,11184
2018-05-29T05:45:42.550Z,11208
2018-05-29T05:46:08.752Z,11240
2018-05-29T05:46:34.861Z,11260
2018-05-29T05:47:01.029Z,11280
2018-05-29T05:47:27.211Z,11312
2018-05-29T05:47:53.352Z,11340
2018-05-29T05:48:19.505Z,11360
2018-05-29T05:48:45.642Z,11376
2018-05-29T05:49:11.787Z,11384
2018-05-29T05:49:37.919Z,11396
2018-05-29T05:50:04.075Z,11412
2018-05-29T05:50:30.222Z,11432
2018-05-29T05:50:56.370Z,11448
2018-05-29T05:51:22.529Z,11456
2018-05-29T05:51:48.681Z,11480
2018-05-29T05:52:14.823Z,11516
2018-05-29T05:52:41.011Z,11532
2018-05-29T05:53:07.107Z,11556
2018-05-29T05:53:33.247Z,11584
2018-05-29T05:53:59.403Z,11616
2018-05-29T05:54:25.544Z,11648
2018-05-29T05:54:51.683Z,11684
2018-05-29T05:55:17.822Z,11736
2018-05-29T05:55:43.967Z,11784
2018-05-29T05:56:10.112Z,11816
2018-05-29T05:56:36.263Z,11860
2018-05-29T05:57:02.427Z,11900
2018-05-29T05:57:28.571Z,11940
2018-05-29T05:57:54.736Z,11968
2018-05-29T05:58:20.897Z,11984
2018-05-29T05:58:47.062Z,12004
2018-05-29T05:59:13.199Z,12032
2018-05-29T05:59:39.342Z,12068
2018-05-29T06:00:05.482Z,12108
2018-05-29T06:00:31.622Z,12140
2018-05-29T06:00:57.765Z,12276
2018-05-29T06:01:23.901Z,12324
2018-05-29T06:01:50.130Z,12352
2018-05-29T06:02:16.261Z,12388
2018-05-29T06:02:42.410Z,12400
2018-05-29T06:03:08.579Z,12416
2018-05-29T06:03:34.747Z,12440
2018-05-29T06:04:00.912Z,12456
2018-05-29T06:04:27.053Z,12488
2018-05-29T06:04:53.193Z,12516
2018-05-29T06:05:19.341Z,12520
2018-05-29T06:05:45.475Z,12544